createdAt,value
2022-08-14T00:01:59.598Z,2.13
2022-08-14T00:04:34.133Z,2.00
2022-08-14T00:07:06.006Z,2.05
2022-08-14T00:09:33.881Z,2.13
2022-08-14T00:12:10.635Z,1.83
2022-08-14T00:14:55.020Z,2.15
2022-08-14T00:17:24.149Z,1.85
2022-08-14T00:19:51.951Z,2.20
2022-08-14T00:22:44.380Z,2.03
2022-08-14T00:25:09.762Z,2.28
2022-08-14T00:27:38.091Z,2.28
2022-08-14T00:30:10.958Z,2.08
2022-08-14T00:32:52.565Z,2.00
2022-08-14T00:35:31.607Z,2.05
2022-08-14T00:38:11.998Z,2.40
2022-08-14T00:40:39.659Z,2.50
2022-08-14T00:43:15.296Z,2.83
2022-08-14T00:45:43.271Z,2.20
2022-08-14T00:48:34.387Z,2.35
2022-08-14T00:51:08.950Z,2.15
2022-08-14T00:53:37.422Z,2.38
2022-08-14T00:56:08.422Z,2.35
2022-08-14T00:58:44.953Z,2.22
2022-08-14T01:01:14.607Z,2.33
2022-08-14T01:03:45.266Z,2.53
2022-08-14T01:06:16.896Z,2.05
2022-08-14T01:08:51.960Z,2.40
2022-08-14T01:11:35.581Z,2.30
2022-08-14T01:14:04.990Z,2.25
2022-08-14T01:16:53.136Z,2.58
2022-08-14T01:19:41.813Z,2.27
2022-08-14T01:22:12.598Z,2.50
2022-08-14T01:24:43.426Z,2.45
2022-08-14T01:27:22.352Z,2.00
2022-08-14T01:30:01.112Z,2.10
2022-08-14T01:32:37.522Z,2.28
2022-08-14T01:35:17.699Z,2.17
2022-08-14T01:37:58.334Z,2.30
2022-08-14T01:40:36.431Z,2.58
2022-08-14T01:43:11.497Z,2.35
2022-08-14T01:45:40.568Z,2.17
2022-08-14T01:48:13.503Z,1.98
2022-08-14T01:50:44.190Z,2.10
2022-08-14T01:53:12.864Z,2.63
2022-08-14T01:55:42.006Z,2.22
2022-08-14T01:58:19.371Z,2.15
2022-08-14T02:00:54.446Z,2.00
2022-08-14T02:03:24.189Z,2.28
2022-08-14T02:05:59.872Z,2.25
2022-08-14T02:08:34.573Z,2.30
2022-08-14T02:11:22.114Z,2.10
2022-08-14T02:13:51.323Z,2.30
2022-08-14T02:16:22.461Z,2.33
2022-08-14T02:18:50.793Z,2.20
2022-08-14T02:21:23.461Z,2.10
2022-08-14T02:23:53.582Z,2.20
2022-08-14T02:26:29.761Z,2.67
2022-08-14T02:29:03.206Z,2.35
2022-08-14T02:31:42.654Z,2.00
2022-08-14T02:34:14.530Z,1.92
2022-08-14T02:37:05.227Z,1.92
2022-08-14T02:39:36.067Z,2.00
2022-08-14T02:42:05.534Z,2.53
2022-08-14T02:44:39.796Z,2.58
2022-08-14T02:47:15.090Z,2.90
2022-08-14T02:49:50.745Z,2.03
2022-08-14T02:52:56.879Z,2.28
2022-08-14T02:55:10.595Z,2.17
2022-08-14T02:57:39.971Z,2.78
2022-08-14T03:00:09.892Z,2.38
2022-08-14T03:02:56.491Z,2.60
2022-08-14T03:05:26.368Z,2.45
2022-08-14T03:07:54.430Z,2.33
2022-08-14T03:10:27.710Z,2.50
2022-08-14T03:13:00.739Z,2.10
2022-08-14T03:15:28.461Z,2.95
2022-08-14T03:17:58.545Z,2.33
2022-08-14T03:20:28.675Z,2.80
2022-08-14T03:23:03.247Z,2.60
2022-08-14T03:25:33.640Z,2.63
2022-08-14T03:28:07.167Z,2.58
2022-08-14T03:30:39.617Z,2.33
2022-08-14T03:33:12.608Z,2.65
2022-08-14T03:36:00.047Z,2.40
2022-08-14T03:39:12.371Z,2.67
2022-08-14T03:41:23.699Z,2.97
2022-08-14T03:43:57.430Z,2.92
2022-08-14T03:46:51.757Z,2.58
2022-08-14T03:49:24.084Z,3.17
2022-08-14T03:51:57.739Z,2.35
2022-08-14T03:54:26.226Z,2.60
2022-08-14T03:56:54.687Z,2.67
2022-08-14T03:59:22.811Z,2.85
2022-08-14T04:01:57.939Z,2.60
2022-08-14T04:04:33.400Z,2.10
2022-08-14T04:07:01.672Z,2.53
2022-08-14T04:09:29.450Z,2.15
2022-08-14T04:11:59.932Z,2.10
2022-08-14T04:14:29.623Z,2.50
2022-08-14T04:16:57.827Z,2.05
2022-08-14T04:19:32.740Z,2.70
2022-08-14T04:22:03.764Z,2.63
2022-08-14T04:24:38.366Z,2.50
2022-08-14T04:27:10.633Z,2.60
2022-08-14T04:29:39.425Z,2.90
2022-08-14T04:33:00.366Z,2.55
2022-08-14T04:34:56.189Z,2.55
2022-08-14T04:37:43.346Z,2.47
2022-08-14T04:40:32.122Z,2.38
2022-08-14T04:43:18.440Z,2.38
2022-08-14T04:45:51.153Z,2.40
2022-08-14T04:48:39.974Z,2.10
2022-08-14T04:51:10.148Z,2.20
2022-08-14T04:53:42.848Z,2.38
2022-08-14T04:56:33.611Z,2.75
2022-08-14T04:59:10.709Z,2.70
2022-08-14T05:01:45.264Z,2.53
2022-08-14T05:04:19.700Z,2.50
2022-08-14T05:06:49.062Z,2.15
2022-08-14T05:09:17.248Z,2.47
2022-08-14T05:11:45.335Z,2.50
2022-08-14T05:14:17.151Z,2.38
2022-08-14T05:17:02.385Z,2.30
2022-08-14T05:19:32.049Z,2.40
2022-08-14T05:22:17.099Z,2.70
2022-08-14T05:24:51.100Z,2.58
2022-08-14T05:27:23.242Z,2.78
2022-08-14T05:29:53.006Z,3.78
2022-08-14T05:32:20.800Z,2.55
2022-08-14T05:34:48.578Z,2.67
2022-08-14T05:37:16.197Z,2.78
2022-08-14T05:39:44.208Z,2.50
2022-08-14T05:42:22.211Z,2.50
2022-08-14T05:44:56.095Z,2.17
2022-08-14T05:47:28.920Z,2.53
2022-08-14T05:50:02.291Z,2.63
2022-08-14T05:52:39.330Z,2.30
2022-08-14T05:55:08.481Z,2.40
2022-08-14T05:57:46.154Z,2.45
2022-08-14T06:00:24.918Z,2.90
2022-08-14T06:02:58.599Z,2.40
2022-08-14T06:05:29.354Z,2.45
2022-08-14T06:07:58.491Z,2.40
2022-08-14T06:10:28.184Z,2.47
2022-08-14T06:12:57.363Z,2.47
2022-08-14T06:15:30.019Z,2.83
2022-08-14T06:18:00.349Z,2.80
2022-08-14T06:20:28.732Z,2.58
2022-08-14T06:22:59.280Z,3.17
2022-08-14T06:25:27.833Z,3.00
2022-08-14T06:27:55.965Z,2.47
2022-08-14T06:30:30.446Z,2.95
2022-08-14T06:33:15.615Z,2.83
2022-08-14T06:35:43.834Z,2.60
2022-08-14T06:38:23.338Z,2.87
2022-08-14T06:40:53.331Z,2.75
2022-08-14T06:43:27.016Z,2.67
2022-08-14T06:45:57.487Z,2.85
2022-08-14T06:48:28.694Z,3.00
2022-08-14T06:51:00.388Z,2.40
2022-08-14T06:53:28.609Z,2.60
2022-08-14T06:55:58.467Z,2.80
2022-08-14T06:58:31.592Z,2.58
2022-08-14T07:01:25.105Z,2.72
2022-08-14T07:04:22.473Z,2.47
2022-08-14T07:06:51.256Z,3.00
2022-08-14T07:09:22.692Z,2.75
2022-08-14T07:11:51.949Z,3.50
2022-08-14T07:14:19.816Z,2.63
2022-08-14T07:16:47.490Z,2.40
2022-08-14T07:19:17.696Z,2.58
2022-08-14T07:21:50.299Z,2.50
2022-08-14T07:24:22.076Z,2.20
2022-08-14T07:26:54.289Z,2.35
2022-08-14T07:29:26.028Z,2.20
2022-08-14T07:31:54.341Z,2.28
2022-08-14T07:34:36.241Z,2.25
2022-08-14T07:37:09.930Z,2.13
2022-08-14T07:39:38.645Z,2.40
2022-08-14T07:42:07.357Z,2.00
2022-08-14T07:44:35.825Z,2.53
2022-08-14T07:47:15.882Z,2.55
2022-08-14T07:49:55.439Z,2.40
2022-08-14T07:52:30.668Z,2.30
2022-08-14T07:54:58.825Z,2.03
2022-08-14T07:57:27.463Z,2.28
2022-08-14T07:59:55.357Z,1.95
2022-08-14T08:02:23.549Z,2.20
2022-08-14T08:04:55.136Z,1.92
2022-08-14T08:07:29.990Z,2.60
2022-08-14T08:10:01.143Z,2.20
2022-08-14T08:12:32.577Z,2.30
2022-08-14T08:15:08.221Z,2.40
2022-08-14T08:17:38.187Z,2.00
2022-08-14T08:20:12.045Z,2.30
2022-08-14T08:22:43.467Z,2.80
2022-08-14T08:25:18.080Z,2.35
2022-08-14T08:27:55.995Z,2.15
2022-08-14T08:30:24.534Z,2.17
2022-08-14T08:32:53.706Z,2.28
2022-08-14T08:35:23.496Z,2.20
2022-08-14T08:38:01.243Z,2.13
2022-08-14T08:40:42.140Z,2.20
2022-08-14T08:43:18.286Z,2.10
2022-08-14T08:45:54.387Z,2.03
2022-08-14T08:48:31.471Z,2.58
2022-08-14T08:53:34.162Z,2.30
2022-08-14T08:56:02.721Z,2.08
2022-08-14T08:58:30.667Z,2.10
2022-08-14T09:01:00.106Z,2.20
2022-08-14T09:03:29.049Z,2.72
2022-08-14T09:05:59.525Z,2.25
2022-08-14T09:08:32.848Z,2.47
2022-08-14T09:11:18.467Z,2.30
2022-08-14T09:13:48.676Z,2.50
2022-08-14T09:16:19.747Z,2.10
2022-08-14T09:18:47.833Z,2.13
2022-08-14T09:21:16.423Z,2.63
2022-08-14T09:24:26.508Z,2.40
2022-08-14T09:26:32.335Z,2.30
2022-08-14T09:29:01.383Z,2.20
2022-08-14T09:31:42.978Z,2.40
2022-08-14T09:34:28.256Z,2.60
2022-08-14T09:37:14.518Z,2.30
2022-08-14T09:39:43.888Z,2.30
2022-08-14T09:42:33.185Z,2.42
2022-08-14T09:45:13.900Z,2.10
2022-08-14T09:47:43.267Z,1.95
2022-08-14T09:50:26.057Z,2.38
2022-08-14T09:53:05.443Z,2.65
2022-08-14T09:55:42.371Z,1.90
2022-08-14T09:58:19.272Z,2.17
2022-08-14T10:00:53.896Z,2.20
2022-08-14T10:03:33.807Z,2.08
2022-08-14T10:06:20.584Z,2.10
2022-08-14T10:08:51.578Z,2.25
2022-08-14T10:11:23.424Z,1.95
2022-08-14T10:13:55.809Z,2.10
2022-08-14T10:16:33.194Z,2.20
2022-08-14T10:19:09.635Z,2.28
2022-08-14T10:23:13.549Z,2.30
2022-08-14T10:24:37.350Z,1.85
2022-08-14T10:27:05.490Z,2.25
2022-08-14T10:29:33.157Z,2.47
2022-08-14T10:32:02.184Z,2.28
2022-08-14T10:34:35.671Z,2.30
2022-08-14T10:37:14.558Z,2.15
2022-08-14T10:39:51.208Z,2.22
2022-08-14T10:42:40.472Z,2.30
2022-08-14T10:45:25.572Z,2.40
2022-08-14T10:48:09.206Z,2.72
2022-08-14T10:50:46.367Z,2.10
2022-08-14T10:53:14.431Z,3.00
2022-08-14T10:55:45.515Z,2.70
2022-08-14T10:58:15.000Z,2.20
2022-08-14T11:00:56.636Z,2.58
2022-08-14T11:03:35.760Z,2.17
2022-08-14T11:06:17.279Z,2.50
2022-08-14T11:08:45.595Z,2.42
2022-08-14T11:11:13.707Z,2.40
2022-08-14T11:13:46.606Z,2.10
2022-08-14T11:16:15.946Z,2.20
2022-08-14T11:18:50.842Z,2.03
2022-08-14T11:21:23.287Z,2.30
2022-08-14T11:23:53.860Z,2.10
2022-08-14T11:26:27.988Z,2.20
2022-08-14T11:28:59.926Z,1.90
2022-08-14T11:31:38.798Z,2.08
2022-08-14T11:34:29.817Z,1.98
2022-08-14T11:37:02.727Z,2.03
2022-08-14T11:39:45.382Z,2.22
2022-08-14T11:42:58.368Z,2.25
2022-08-14T11:45:11.137Z,2.30
2022-08-14T11:47:43.963Z,2.20
2022-08-14T11:50:36.919Z,2.28
2022-08-14T11:53:07.095Z,2.60
2022-08-14T11:55:38.150Z,2.05
2022-08-14T11:58:09.473Z,2.60
2022-08-14T12:00:48.296Z,3.08
2022-08-14T12:03:19.948Z,2.40
2022-08-14T12:06:05.427Z,3.20
2022-08-14T12:08:35.393Z,2.65
2022-08-14T12:11:07.028Z,2.50
2022-08-14T12:13:37.499Z,2.10
2022-08-14T12:16:11.206Z,1.80
2022-08-14T12:18:49.707Z,1.98
2022-08-14T12:21:23.755Z,2.10
2022-08-14T12:24:02.417Z,2.10
2022-08-14T12:26:39.938Z,1.80
2022-08-14T12:29:18.078Z,1.70
2022-08-14T12:31:47.399Z,2.00
2022-08-14T12:34:24.128Z,2.35
2022-08-14T12:37:03.268Z,2.10
2022-08-14T12:39:30.902Z,2.30
2022-08-14T12:42:09.241Z,2.15
2022-08-14T12:44:42.899Z,2.20
2022-08-14T12:47:15.177Z,2.20
2022-08-14T12:49:52.946Z,1.98
2022-08-14T12:52:43.104Z,1.88
2022-08-14T12:55:20.851Z,2.00
2022-08-14T12:57:49.425Z,2.17
2022-08-14T13:00:23.913Z,2.10
2022-08-14T13:02:54.970Z,2.10
2022-08-14T13:05:24.457Z,2.20
2022-08-14T13:10:47.641Z,2.15
2022-08-14T13:13:15.217Z,2.25
2022-08-14T13:15:45.402Z,2.00
2022-08-14T13:18:15.700Z,2.20
2022-08-14T13:20:48.044Z,1.95
2022-08-14T13:23:30.423Z,1.85
2022-08-14T13:25:59.853Z,2.00
2022-08-14T13:28:32.826Z,2.15
2022-08-14T13:31:08.978Z,1.77
2022-08-14T13:33:40.662Z,2.00
2022-08-14T13:36:09.681Z,2.08
2022-08-14T13:38:37.364Z,2.10
2022-08-14T13:41:06.210Z,1.95
2022-08-14T13:43:36.733Z,2.00
2022-08-14T13:46:19.312Z,2.33
2022-08-14T13:48:47.428Z,1.83
2022-08-14T13:51:17.548Z,1.92
2022-08-14T13:54:07.152Z,2.10
2022-08-14T13:56:37.745Z,2.00
2022-08-14T13:59:06.562Z,1.90
2022-08-14T14:01:39.191Z,1.52
2022-08-14T14:04:18.722Z,1.75
2022-08-14T14:06:49.124Z,2.28
2022-08-14T14:09:21.528Z,1.90
2022-08-14T14:11:53.062Z,2.08
2022-08-14T14:14:45.104Z,1.95
2022-08-14T14:17:12.468Z,1.73
2022-08-14T14:19:43.307Z,1.90
2022-08-14T14:22:35.496Z,1.85
2022-08-14T14:25:01.549Z,2.03
2022-08-14T14:27:40.922Z,2.17
2022-08-14T14:30:15.122Z,1.90
2022-08-14T14:33:02.073Z,1.80
2022-08-14T14:35:39.613Z,1.90
2022-08-14T14:38:08.704Z,1.50
2022-08-14T14:40:53.195Z,1.80
2022-08-14T14:43:26.267Z,1.58
2022-08-14T14:45:55.563Z,1.70
2022-08-14T14:48:27.120Z,1.80
2022-08-14T14:50:58.424Z,1.40
2022-08-14T14:53:27.295Z,1.65
2022-08-14T14:56:50.221Z,1.50
2022-08-14T14:58:46.995Z,1.67
2022-08-14T15:01:18.371Z,1.70
2022-08-14T15:03:46.190Z,1.40
2022-08-14T15:06:17.422Z,1.50
2022-08-14T15:08:56.876Z,1.50
2022-08-14T15:13:58.144Z,1.33
2022-08-14T15:16:28.309Z,1.60
2022-08-14T15:18:56.027Z,1.33
2022-08-14T15:21:25.294Z,1.58
2022-08-14T15:23:55.068Z,1.40
2022-08-14T15:26:31.973Z,1.67
2022-08-14T15:29:02.143Z,1.80
2022-08-14T15:31:32.858Z,1.33
2022-08-14T15:34:40.936Z,1.20
2022-08-14T15:36:59.429Z,1.80
2022-08-14T15:39:29.548Z,2.00
2022-08-14T15:42:02.894Z,1.58
2022-08-14T15:44:34.543Z,1.40
2022-08-14T15:47:09.273Z,1.42
2022-08-14T15:49:38.027Z,1.60
2022-08-14T15:52:08.086Z,1.50
2022-08-14T15:54:38.641Z,1.83
2022-08-14T15:57:08.619Z,1.70
2022-08-14T15:59:56.065Z,2.00
2022-08-14T16:02:27.635Z,2.30
2022-08-14T16:04:56.237Z,1.95
2022-08-14T16:07:26.973Z,1.77
2022-08-14T16:10:25.201Z,2.05
2022-08-14T16:12:46.243Z,2.05
2022-08-14T16:15:16.858Z,1.70
2022-08-14T16:17:45.263Z,1.60
2022-08-14T16:20:41.895Z,2.17
2022-08-14T16:23:10.433Z,1.80
2022-08-14T16:25:43.800Z,1.80
2022-08-14T16:28:27.215Z,2.00
2022-08-14T16:30:56.071Z,1.88
2022-08-14T16:33:56.491Z,2.20
2022-08-14T16:36:31.280Z,1.90
2022-08-14T16:39:01.946Z,2.00
2022-08-14T16:41:29.849Z,2.00
2022-08-14T16:44:01.247Z,2.05
2022-08-14T16:46:31.486Z,2.28
2022-08-14T16:49:00.573Z,2.00
2022-08-14T16:51:34.818Z,1.95
2022-08-14T16:54:05.433Z,2.10
2022-08-14T16:56:53.099Z,2.40
2022-08-14T16:59:30.585Z,2.08
2022-08-14T17:02:12.239Z,2.00
2022-08-14T17:04:41.020Z,1.75
2022-08-14T17:07:13.025Z,2.15
2022-08-14T17:12:33.726Z,1.90
2022-08-14T17:15:03.770Z,2.03
2022-08-14T17:17:40.821Z,1.98
2022-08-14T17:20:53.568Z,2.17
2022-08-14T17:23:03.964Z,2.00
2022-08-14T17:25:39.091Z,2.17
2022-08-14T17:28:50.181Z,1.98
2022-08-14T17:31:12.235Z,2.20
2022-08-14T17:33:44.530Z,2.15
2022-08-14T17:36:22.003Z,2.30
2022-08-14T17:39:06.714Z,2.75
2022-08-14T17:41:43.564Z,2.63
2022-08-14T17:44:21.874Z,2.90
2022-08-14T17:46:55.390Z,3.28
2022-08-14T17:49:27.157Z,2.50
2022-08-14T17:52:07.866Z,2.25
2022-08-14T17:55:00.499Z,2.80
2022-08-14T17:57:35.599Z,2.38
2022-08-14T18:00:11.347Z,2.42
2022-08-14T18:02:39.746Z,2.30
2022-08-14T18:05:23.244Z,2.47
2022-08-14T18:08:31.982Z,2.42
2022-08-14T18:10:56.746Z,2.33
2022-08-14T18:13:50.171Z,2.15
2022-08-14T18:16:20.538Z,2.65
2022-08-14T18:18:49.959Z,2.35
2022-08-14T18:21:41.868Z,2.30
2022-08-14T18:24:28.061Z,2.63
2022-08-14T18:27:01.564Z,2.30
2022-08-14T18:29:31.654Z,2.55
2022-08-14T18:32:00.140Z,3.13
2022-08-14T18:34:36.273Z,2.70
2022-08-14T18:37:17.562Z,2.70
2022-08-14T18:40:03.401Z,2.50
2022-08-14T18:42:35.305Z,2.80
2022-08-14T18:45:12.688Z,2.60
2022-08-14T18:50:32.475Z,2.70
2022-08-14T18:53:07.557Z,3.00
2022-08-14T18:55:36.685Z,2.83
2022-08-14T18:58:31.099Z,2.83
2022-08-14T19:01:04.296Z,2.53
2022-08-14T19:03:36.333Z,2.73
2022-08-14T19:06:04.680Z,3.70
2022-08-14T19:08:39.402Z,3.92
2022-08-14T19:11:32.082Z,3.58
2022-08-14T19:14:00.420Z,4.03
2022-08-14T19:16:48.348Z,3.53
2022-08-14T19:19:23.999Z,4.13
2022-08-14T19:21:57.707Z,3.58
2022-08-14T19:24:34.618Z,4.93
2022-08-14T19:27:16.773Z,4.60
2022-08-14T19:29:47.951Z,3.50
2022-08-14T19:32:36.930Z,4.05
2022-08-14T19:35:55.343Z,5.15
2022-08-14T19:38:35.033Z,5.07
2022-08-14T19:41:14.187Z,4.35
2022-08-14T19:43:55.276Z,4.88
2022-08-14T19:46:38.758Z,4.40
2022-08-14T19:49:14.657Z,5.10
2022-08-14T19:51:50.897Z,5.90
2022-08-14T19:54:19.025Z,5.40
2022-08-14T19:56:46.922Z,4.78
2022-08-14T19:59:19.283Z,4.90
2022-08-14T20:01:50.583Z,4.38
2022-08-14T20:04:45.134Z,3.88
2022-08-14T20:07:11.595Z,4.20
2022-08-14T20:11:11.210Z,4.20
2022-08-14T20:12:36.614Z,3.85
2022-08-14T20:15:21.015Z,4.30
2022-08-14T20:17:52.368Z,4.47
2022-08-14T20:22:48.979Z,3.90
2022-08-14T20:25:18.227Z,4.10
2022-08-14T20:27:49.922Z,3.55
2022-08-14T20:30:33.501Z,3.53
2022-08-14T20:33:11.339Z,3.53
2022-08-14T20:35:39.269Z,3.83
2022-08-14T20:38:29.293Z,4.03
2022-08-14T20:41:01.830Z,4.45
2022-08-14T20:43:53.579Z,4.13
2022-08-14T20:46:29.461Z,4.30
2022-08-14T20:49:02.508Z,3.70
2022-08-14T20:51:47.376Z,3.72
2022-08-14T20:54:33.990Z,3.30
2022-08-14T20:57:17.874Z,3.50
2022-08-14T20:59:50.170Z,4.05
2022-08-14T21:02:29.396Z,4.10
2022-08-14T21:05:02.588Z,3.60
2022-08-14T21:07:36.366Z,4.32
2022-08-14T21:10:33.182Z,2.42
2022-08-14T21:13:25.665Z,2.72
2022-08-14T21:15:57.552Z,2.78
2022-08-14T21:18:30.472Z,2.55
2022-08-14T21:21:01.362Z,2.80
2022-08-14T21:23:55.484Z,2.85
2022-08-14T21:26:33.282Z,2.70
2022-08-14T21:29:14.295Z,2.88
2022-08-14T21:31:42.915Z,2.80
2022-08-14T21:34:31.048Z,2.80
2022-08-14T21:37:06.430Z,2.97
2022-08-14T21:39:36.874Z,3.40
2022-08-14T21:42:06.135Z,3.50
2022-08-14T21:44:43.074Z,3.13
2022-08-14T21:47:12.757Z,2.90
2022-08-14T21:49:46.000Z,2.90
2022-08-14T21:52:50.398Z,3.47
2022-08-14T21:55:09.405Z,3.25
2022-08-14T21:58:44.494Z,3.80
2022-08-14T22:00:36.513Z,3.25
2022-08-14T22:03:09.089Z,3.05
2022-08-14T22:05:41.331Z,3.35
2022-08-14T22:08:12.218Z,3.42
2022-08-14T22:10:42.478Z,3.35
2022-08-14T22:13:13.282Z,3.20
2022-08-14T22:15:49.542Z,3.47
2022-08-14T22:18:19.990Z,3.05
2022-08-14T22:20:53.338Z,3.13
2022-08-14T22:23:23.566Z,2.95
2022-08-14T22:25:51.251Z,3.20
2022-08-14T22:28:25.423Z,3.28
2022-08-14T22:30:55.148Z,3.20
2022-08-14T22:33:26.680Z,3.30
2022-08-14T22:35:59.625Z,3.00
2022-08-14T22:38:36.309Z,3.20
2022-08-14T22:41:25.532Z,2.90
2022-08-14T22:43:55.401Z,2.65
2022-08-14T22:46:23.709Z,2.85
2022-08-14T22:48:52.212Z,2.75
2022-08-14T22:51:21.279Z,2.75
2022-08-14T22:53:52.218Z,2.70
2022-08-14T22:56:21.902Z,3.35
2022-08-14T22:58:53.884Z,2.90
2022-08-14T23:01:24.525Z,3.03
2022-08-14T23:04:12.218Z,2.83
2022-08-14T23:07:04.771Z,3.05
2022-08-14T23:09:36.096Z,2.95
2022-08-14T23:12:06.164Z,2.60
2022-08-14T23:14:53.798Z,2.90
2022-08-14T23:17:22.689Z,2.67
2022-08-14T23:19:56.252Z,3.05
2022-08-14T23:22:26.349Z,2.67
2022-08-14T23:24:56.692Z,2.92
2022-08-14T23:27:31.958Z,2.83
2022-08-14T23:33:01.762Z,2.75
2022-08-14T23:35:29.491Z,3.00
2022-08-14T23:38:01.890Z,2.63
2022-08-14T23:40:31.137Z,2.85
2022-08-14T23:43:09.239Z,2.60
2022-08-14T23:45:39.354Z,2.90
2022-08-14T23:48:12.459Z,2.75
2022-08-14T23:50:41.261Z,3.15
2022-08-14T23:53:47.450Z,3.33
2022-08-14T23:56:11.991Z,3.60
2022-08-14T23:58:40.049Z,3.63
